sensor_id;sensor_type;location;lat;lon;timestamp;pressure;altitude;pressure_sealevel;temperature;humidity
68594;BME280;55563;52.416;13.548;2022-07-12T00:01:39;101712.97;;;15.28;70.55
68594;BME280;55563;52.416;13.548;2022-07-12T00:03:40;101715.38;;;15.25;70.97
68594;BME280;55563;52.416;13.548;2022-07-12T00:05:41;101714.28;;;15.21;71.28
68594;BME280;55563;52.416;13.548;2022-07-12T00:07:41;101719.56;;;15.21;71.43
68594;BME280;55563;52.416;13.548;2022-07-12T00:09:42;101716.13;;;15.20;71.75
68594;BME280;55563;52.416;13.548;2022-07-12T00:11:43;101716.41;;;15.14;72.05
68594;BME280;55563;52.416;13.548;2022-07-12T00:13:43;101720.34;;;15.11;72.29
68594;BME280;55563;52.416;13.548;2022-07-12T00:15:44;101712.13;;;15.08;72.42
68594;BME280;55563;52.416;13.548;2022-07-12T00:17:45;101715.03;;;15.01;72.90
68594;BME280;55563;52.416;13.548;2022-07-12T00:19:45;101711.88;;;14.99;73.42
68594;BME280;55563;52.416;13.548;2022-07-12T00:21:46;101721.09;;;14.97;72.67
68594;BME280;55563;52.416;13.548;2022-07-12T00:23:47;101715.53;;;14.93;73.02
68594;BME280;55563;52.416;13.548;2022-07-12T00:25:48;101716.59;;;14.92;73.28
68594;BME280;55563;52.416;13.548;2022-07-12T00:27:48;101712.63;;;14.84;73.13
68594;BME280;55563;52.416;13.548;2022-07-12T00:29:50;101720.50;;;14.74;73.81
68594;BME280;55563;52.416;13.548;2022-07-12T00:31:51;101713.66;;;14.78;73.32
68594;BME280;55563;52.416;13.548;2022-07-12T00:33:51;101718.91;;;14.68;74.88
68594;BME280;55563;52.416;13.548;2022-07-12T00:35:52;101718.88;;;14.63;75.15
68594;BME280;55563;52.416;13.548;2022-07-12T00:37:53;101714.94;;;14.71;74.72
68594;BME280;55563;52.416;13.548;2022-07-12T00:39:55;101734.75;;;14.63;75.19
68594;BME280;55563;52.416;13.548;2022-07-12T00:41:55;101731.31;;;14.58;75.21
68594;BME280;55563;52.416;13.548;2022-07-12T00:43:56;101731.81;;;14.55;74.66
68594;BME280;55563;52.416;13.548;2022-07-12T00:45:57;101731.81;;;14.60;74.85
68594;BME280;55563;52.416;13.548;2022-07-12T00:47:57;101741.13;;;14.62;73.97
68594;BME280;55563;52.416;13.548;2022-07-12T00:49:59;101735.53;;;14.64;74.26
68594;BME280;55563;52.416;13.548;2022-07-12T00:52:00;101737.16;;;14.65;74.56
68594;BME280;55563;52.416;13.548;2022-07-12T00:54:00;101739.53;;;14.61;74.73
68594;BME280;55563;52.416;13.548;2022-07-12T00:56:03;101738.97;;;14.59;74.66
68594;BME280;55563;52.416;13.548;2022-07-12T00:58:05;101734.69;;;14.53;74.85
68594;BME280;55563;52.416;13.548;2022-07-12T01:00:07;101735.78;;;14.52;74.96
68594;BME280;55563;52.416;13.548;2022-07-12T01:02:09;101742.13;;;14.51;74.78
68594;BME280;55563;52.416;13.548;2022-07-12T01:04:10;101737.34;;;14.48;74.89
68594;BME280;55563;52.416;13.548;2022-07-12T01:06:11;101727.22;;;14.40;75.83
68594;BME280;55563;52.416;13.548;2022-07-12T01:08:12;101738.09;;;14.38;75.75
68594;BME280;55563;52.416;13.548;2022-07-12T01:10:13;101732.28;;;14.42;75.33
68594;BME280;55563;52.416;13.548;2022-07-12T01:12:14;101730.69;;;14.40;75.24
68594;BME280;55563;52.416;13.548;2022-07-12T01:14:15;101735.09;;;14.35;75.20
68594;BME280;55563;52.416;13.548;2022-07-12T01:16:16;101741.19;;;14.35;75.19
68594;BME280;55563;52.416;13.548;2022-07-12T01:18:18;101742.75;;;14.31;75.46
68594;BME280;55563;52.416;13.548;2022-07-12T01:20:19;101737.19;;;14.28;75.36
68594;BME280;55563;52.416;13.548;2022-07-12T01:22:24;101741.97;;;14.31;75.22
68594;BME280;55563;52.416;13.548;2022-07-12T01:24:25;101741.13;;;14.25;75.12
68594;BME280;55563;52.416;13.548;2022-07-12T01:26:26;101740.84;;;14.22;75.20
68594;BME280;55563;52.416;13.548;2022-07-12T01:28:27;101743.72;;;14.15;75.50
68594;BME280;55563;52.416;13.548;2022-07-12T01:30:28;101746.59;;;14.09;75.73
68594;BME280;55563;52.416;13.548;2022-07-12T01:32:28;101744.47;;;14.11;75.63
68594;BME280;55563;52.416;13.548;2022-07-12T01:34:30;101755.03;;;14.11;75.82
68594;BME280;55563;52.416;13.548;2022-07-12T01:36:31;101753.16;;;14.06;75.89
68594;BME280;55563;52.416;13.548;2022-07-12T01:38:32;101754.25;;;14.05;75.68
68594;BME280;55563;52.416;13.548;2022-07-12T01:40:33;101752.88;;;14.03;76.08
68594;BME280;55563;52.416;13.548;2022-07-12T01:42:36;101749.38;;;13.92;76.54
68594;BME280;55563;52.416;13.548;2022-07-12T01:44:37;101749.19;;;13.72;77.12
68594;BME280;55563;52.416;13.548;2022-07-12T01:46:38;101747.09;;;13.74;77.03
68594;BME280;55563;52.416;13.548;2022-07-12T01:48:39;101745.63;;;13.88;76.94
68594;BME280;55563;52.416;13.548;2022-07-12T01:50:39;101745.09;;;13.86;76.64
68594;BME280;55563;52.416;13.548;2022-07-12T01:52:41;101742.16;;;13.82;76.61
68594;BME280;55563;52.416;13.548;2022-07-12T01:54:42;101745.81;;;13.76;76.64
68594;BME280;55563;52.416;13.548;2022-07-12T01:56:43;101739.44;;;13.72;77.57
68594;BME280;55563;52.416;13.548;2022-07-12T01:58:44;101753.63;;;13.61;78.30
68594;BME280;55563;52.416;13.548;2022-07-12T02:00:45;101746.78;;;13.65;77.69
68594;BME280;55563;52.416;13.548;2022-07-12T02:02:51;101743.09;;;13.66;77.69
68594;BME280;55563;52.416;13.548;2022-07-12T02:04:53;101753.72;;;13.71;77.70
68594;BME280;55563;52.416;13.548;2022-07-12T02:06:54;101758.72;;;13.73;77.41
68594;BME280;55563;52.416;13.548;2022-07-12T02:08:55;101757.41;;;13.70;77.52
68594;BME280;55563;52.416;13.548;2022-07-12T02:10:56;101751.03;;;13.66;77.65
68594;BME280;55563;52.416;13.548;2022-07-12T02:12:56;101753.66;;;13.66;77.82
68594;BME280;55563;52.416;13.548;2022-07-12T02:14:59;101762.38;;;13.67;77.78
68594;BME280;55563;52.416;13.548;2022-07-12T02:17:00;101754.16;;;13.63;77.30
68594;BME280;55563;52.416;13.548;2022-07-12T02:19:01;101756.69;;;13.53;77.88
68594;BME280;55563;52.416;13.548;2022-07-12T02:21:02;101770.47;;;13.55;78.08
68594;BME280;55563;52.416;13.548;2022-07-12T02:23:03;101759.91;;;13.55;77.98
68594;BME280;55563;52.416;13.548;2022-07-12T02:25:04;101764.94;;;13.57;78.01
68594;BME280;55563;52.416;13.548;2022-07-12T02:27:05;101762.53;;;13.55;78.01
68594;BME280;55563;52.416;13.548;2022-07-12T02:29:06;101757.25;;;13.55;77.89
68594;BME280;55563;52.416;13.548;2022-07-12T02:31:07;101767.53;;;13.51;77.97
68594;BME280;55563;52.416;13.548;2022-07-12T02:33:08;101758.19;;;13.44;78.19
68594;BME280;55563;52.416;13.548;2022-07-12T02:35:09;101760.31;;;13.42;78.35
68594;BME280;55563;52.416;13.548;2022-07-12T02:37:10;101766.13;;;13.44;78.20
68594;BME280;55563;52.416;13.548;2022-07-12T02:39:10;101758.19;;;13.44;78.50
68594;BME280;55563;52.416;13.548;2022-07-12T02:41:11;101760.03;;;13.43;78.58
68594;BME280;55563;52.416;13.548;2022-07-12T02:43:12;101766.06;;;13.39;79.60
68594;BME280;55563;52.416;13.548;2022-07-12T02:45:12;101759.44;;;13.36;79.68
68594;BME280;55563;52.416;13.548;2022-07-12T02:47:13;101757.59;;;13.37;79.56
68594;BME280;55563;52.416;13.548;2022-07-12T02:49:14;101761.00;;;13.32;79.89
68594;BME280;55563;52.416;13.548;2022-07-12T02:51:14;101756.81;;;13.36;79.19
68594;BME280;55563;52.416;13.548;2022-07-12T02:53:15;101756.06;;;13.41;78.62
68594;BME280;55563;52.416;13.548;2022-07-12T02:55:16;101754.69;;;13.38;79.02
68594;BME280;55563;52.416;13.548;2022-07-12T02:57:16;101758.59;;;13.31;79.91
68594;BME280;55563;52.416;13.548;2022-07-12T02:59:17;101758.66;;;13.36;79.34
68594;BME280;55563;52.416;13.548;2022-07-12T03:01:18;101763.13;;;13.35;79.00
68594;BME280;55563;52.416;13.548;2022-07-12T03:03:18;101761.53;;;13.34;79.10
68594;BME280;55563;52.416;13.548;2022-07-12T03:05:19;101761.81;;;13.33;78.86
68594;BME280;55563;52.416;13.548;2022-07-12T03:07:20;101764.13;;;13.29;79.01
68594;BME280;55563;52.416;13.548;2022-07-12T03:09:20;101755.41;;;13.29;79.61
68594;BME280;55563;52.416;13.548;2022-07-12T03:11:21;101771.25;;;13.29;79.81
68594;BME280;55563;52.416;13.548;2022-07-12T03:13:22;101769.72;;;13.33;78.95
68594;BME280;55563;52.416;13.548;2022-07-12T03:15:22;101766.34;;;13.37;78.85
68594;BME280;55563;52.416;13.548;2022-07-12T03:17:23;101769.25;;;13.41;78.80
68594;BME280;55563;52.416;13.548;2022-07-12T03:19:24;101768.75;;;13.44;78.63
68594;BME280;55563;52.416;13.548;2022-07-12T03:21:24;101776.38;;;13.40;79.15
68594;BME280;55563;52.416;13.548;2022-07-12T03:23:25;101775.59;;;13.40;79.88
68594;BME280;55563;52.416;13.548;2022-07-12T03:25:26;101771.03;;;13.57;78.82
68594;BME280;55563;52.416;13.548;2022-07-12T03:27:26;101775.09;;;13.70;77.94
68594;BME280;55563;52.416;13.548;2022-07-12T03:29:27;101775.03;;;13.65;77.92
68594;BME280;55563;52.416;13.548;2022-07-12T03:31:28;101782.81;;;13.76;77.58
68594;BME280;55563;52.416;13.548;2022-07-12T03:33:28;101781.16;;;13.70;77.33
68594;BME280;55563;52.416;13.548;2022-07-12T03:35:29;101781.13;;;13.65;77.55
68594;BME280;55563;52.416;13.548;2022-07-12T03:37:47;101785.91;;;13.41;78.89
68594;BME280;55563;52.416;13.548;2022-07-12T03:39:48;101781.84;;;13.34;79.73
68594;BME280;55563;52.416;13.548;2022-07-12T03:41:49;101785.16;;;13.46;78.55
68594;BME280;55563;52.416;13.548;2022-07-12T03:43:50;101790.00;;;13.81;77.01
68594;BME280;55563;52.416;13.548;2022-07-12T03:45:50;101784.16;;;13.79;76.82
68594;BME280;55563;52.416;13.548;2022-07-12T03:47:51;101786.56;;;13.80;77.37
68594;BME280;55563;52.416;13.548;2022-07-12T03:49:52;101796.78;;;14.04;76.63
68594;BME280;55563;52.416;13.548;2022-07-12T03:51:52;101796.25;;;14.07;76.25
68594;BME280;55563;52.416;13.548;2022-07-12T03:53:53;101797.91;;;14.13;76.23
68594;BME280;55563;52.416;13.548;2022-07-12T03:55:54;101799.06;;;15.36;72.12
68594;BME280;55563;52.416;13.548;2022-07-12T03:57:54;101801.53;;;17.23;66.12
68594;BME280;55563;52.416;13.548;2022-07-12T03:59:55;101799.22;;;18.23;61.04
68594;BME280;55563;52.416;13.548;2022-07-12T04:01:56;101797.59;;;19.41;57.03
68594;BME280;55563;52.416;13.548;2022-07-12T04:03:57;101813.13;;;19.90;55.60
68594;BME280;55563;52.416;13.548;2022-07-12T04:05:58;101816.06;;;20.21;54.31
68594;BME280;55563;52.416;13.548;2022-07-12T04:07:58;101808.47;;;21.10;52.12
68594;BME280;55563;52.416;13.548;2022-07-12T04:10:01;101812.91;;;20.65;52.58
68594;BME280;55563;52.416;13.548;2022-07-12T04:12:02;101803.97;;;21.91;49.90
68594;BME280;55563;52.416;13.548;2022-07-12T04:14:03;101814.25;;;22.20;49.00
68594;BME280;55563;52.416;13.548;2022-07-12T04:16:04;101808.97;;;21.62;50.53
68594;BME280;55563;52.416;13.548;2022-07-12T04:18:04;101802.59;;;21.94;49.62
68594;BME280;55563;52.416;13.548;2022-07-12T04:20:06;101807.09;;;22.77;47.36
68594;BME280;55563;52.416;13.548;2022-07-12T04:22:07;101804.47;;;21.93;49.30
68594;BME280;55563;52.416;13.548;2022-07-12T04:24:08;101809.38;;;23.27;46.18
68594;BME280;55563;52.416;13.548;2022-07-12T04:26:08;101808.34;;;21.43;48.62
68594;BME280;55563;52.416;13.548;2022-07-12T04:28:09;101806.22;;;21.75;48.42
68594;BME280;55563;52.416;13.548;2022-07-12T04:30:10;101811.22;;;22.44;48.03
68594;BME280;55563;52.416;13.548;2022-07-12T04:32:10;101810.06;;;22.36;46.58
68594;BME280;55563;52.416;13.548;2022-07-12T04:34:12;101807.94;;;21.94;47.28
68594;BME280;55563;52.416;13.548;2022-07-12T04:36:17;101819.75;;;23.02;45.51
68594;BME280;55563;52.416;13.548;2022-07-12T04:38:18;101817.94;;;23.46;45.08
68594;BME280;55563;52.416;13.548;2022-07-12T04:40:18;101815.50;;;23.01;45.62
68594;BME280;55563;52.416;13.548;2022-07-12T04:42:19;101812.13;;;22.79;46.20
68594;BME280;55563;52.416;13.548;2022-07-12T04:44:19;101813.03;;;23.74;44.10
68594;BME280;55563;52.416;13.548;2022-07-12T04:46:20;101817.25;;;23.92;43.68
68594;BME280;55563;52.416;13.548;2022-07-12T04:48:21;101821.75;;;24.35;42.19
68594;BME280;55563;52.416;13.548;2022-07-12T04:50:21;101823.59;;;24.43;42.42
68594;BME280;55563;52.416;13.548;2022-07-12T04:52:22;101822.38;;;24.40;42.71
68594;BME280;55563;52.416;13.548;2022-07-12T04:54:22;101812.66;;;24.01;42.22
68594;BME280;55563;52.416;13.548;2022-07-12T04:56:23;101814.88;;;24.16;42.56
68594;BME280;55563;52.416;13.548;2022-07-12T04:58:23;101823.19;;;25.20;39.98
68594;BME280;55563;52.416;13.548;2022-07-12T05:00:24;101817.78;;;23.68;41.95
68594;BME280;55563;52.416;13.548;2022-07-12T05:02:25;101822.06;;;24.33;41.65
68594;BME280;55563;52.416;13.548;2022-07-12T05:04:27;101820.63;;;25.03;40.80
68594;BME280;55563;52.416;13.548;2022-07-12T05:06:27;101821.81;;;25.14;39.68
68594;BME280;55563;52.416;13.548;2022-07-12T05:08:28;101830.53;;;24.52;40.66
68594;BME280;55563;52.416;13.548;2022-07-12T05:10:28;101829.09;;;26.09;38.81
68594;BME280;55563;52.416;13.548;2022-07-12T05:12:29;101829.94;;;25.05;40.53
68594;BME280;55563;52.416;13.548;2022-07-12T05:14:29;101837.56;;;24.65;40.55
68594;BME280;55563;52.416;13.548;2022-07-12T05:16:31;101847.19;;;25.04;39.54
68594;BME280;55563;52.416;13.548;2022-07-12T05:18:33;101845.09;;;26.05;38.15
68594;BME280;55563;52.416;13.548;2022-07-12T05:20:33;101852.44;;;25.51;37.47
68594;BME280;55563;52.416;13.548;2022-07-12T05:22:34;101850.16;;;25.94;37.63
68594;BME280;55563;52.416;13.548;2022-07-12T05:24:34;101845.22;;;27.02;36.12
68594;BME280;55563;52.416;13.548;2022-07-12T05:26:35;101837.13;;;27.02;34.92
68594;BME280;55563;52.416;13.548;2022-07-12T05:28:40;101823.44;;;26.71;36.41
68594;BME280;55563;52.416;13.548;2022-07-12T05:30:42;101832.66;;;25.68;38.55
68594;BME280;55563;52.416;13.548;2022-07-12T05:32:42;101830.09;;;26.16;37.29
68594;BME280;55563;52.416;13.548;2022-07-12T05:34:43;101832.81;;;25.83;37.60
68594;BME280;55563;52.416;13.548;2022-07-12T05:36:43;101832.63;;;26.58;36.10
68594;BME280;55563;52.416;13.548;2022-07-12T05:38:44;101837.00;;;26.50;36.13
68594;BME280;55563;52.416;13.548;2022-07-12T05:40:45;101837.38;;;26.61;35.98
68594;BME280;55563;52.416;13.548;2022-07-12T05:42:45;101839.78;;;25.84;36.23
68594;BME280;55563;52.416;13.548;2022-07-12T05:44:46;101842.56;;;26.90;35.66
68594;BME280;55563;52.416;13.548;2022-07-12T05:46:47;101840.72;;;27.46;33.81
68594;BME280;55563;52.416;13.548;2022-07-12T05:48:48;101846.56;;;26.35;35.51
68594;BME280;55563;52.416;13.548;2022-07-12T05:50:48;101844.19;;;26.58;35.66
68594;BME280;55563;52.416;13.548;2022-07-12T05:52:49;101850.72;;;28.29;32.74
68594;BME280;55563;52.416;13.548;2022-07-12T05:55:09;101849.59;;;27.59;34.06
68594;BME280;55563;52.416;13.548;2022-07-12T05:57:10;101848.59;;;26.51;34.38
68594;BME280;55563;52.416;13.548;2022-07-12T05:59:11;101838.38;;;25.99;35.13
68594;BME280;55563;52.416;13.548;2022-07-12T06:01:12;101840.06;;;26.85;34.49
68594;BME280;55563;52.416;13.548;2022-07-12T06:03:13;101845.56;;;27.53;32.38
68594;BME280;55563;52.416;13.548;2022-07-12T06:05:14;101848.28;;;26.88;32.60
68594;BME280;55563;52.416;13.548;2022-07-12T06:07:15;101847.19;;;28.76;31.17
68594;BME280;55563;52.416;13.548;2022-07-12T06:09:15;101841.50;;;27.07;33.63
68594;BME280;55563;52.416;13.548;2022-07-12T06:11:16;101835.72;;;27.88;33.07
68594;BME280;55563;52.416;13.548;2022-07-12T06:13:16;101842.84;;;28.71;29.93
68594;BME280;55563;52.416;13.548;2022-07-12T06:15:17;101857.84;;;29.19;30.53
68594;BME280;55563;52.416;13.548;2022-07-12T06:17:17;101848.34;;;27.84;31.26
68594;BME280;55563;52.416;13.548;2022-07-12T06:19:21;101851.31;;;26.87;32.72
68594;BME280;55563;52.416;13.548;2022-07-12T06:21:23;101849.44;;;27.95;32.00
68594;BME280;55563;52.416;13.548;2022-07-12T06:23:24;101853.47;;;28.17;31.54
68594;BME280;55563;52.416;13.548;2022-07-12T06:25:25;101855.97;;;27.66;32.09
68594;BME280;55563;52.416;13.548;2022-07-12T06:27:25;101851.03;;;27.28;32.65
68594;BME280;55563;52.416;13.548;2022-07-12T06:29:26;101856.66;;;28.07;32.24
68594;BME280;55563;52.416;13.548;2022-07-12T06:31:27;101860.53;;;28.69;31.38
68594;BME280;55563;52.416;13.548;2022-07-12T06:33:28;101854.63;;;28.32;31.20
68594;BME280;55563;52.416;13.548;2022-07-12T06:35:29;101875.03;;;29.46;31.13
68594;BME280;55563;52.416;13.548;2022-07-12T06:37:30;101860.31;;;27.43;30.90
68594;BME280;55563;52.416;13.548;2022-07-12T06:39:30;101871.09;;;29.24;30.29
68594;BME280;55563;52.416;13.548;2022-07-12T06:41:31;101857.88;;;29.03;30.93
68594;BME280;55563;52.416;13.548;2022-07-12T06:43:31;101861.41;;;30.00;30.05
68594;BME280;55563;52.416;13.548;2022-07-12T06:45:32;101863.78;;;29.44;30.58
68594;BME280;55563;52.416;13.548;2022-07-12T06:47:32;101850.38;;;27.07;31.74
68594;BME280;55563;52.416;13.548;2022-07-12T06:49:33;101846.59;;;27.92;33.08
68594;BME280;55563;52.416;13.548;2022-07-12T06:51:33;101856.09;;;29.88;29.68
68594;BME280;55563;52.416;13.548;2022-07-12T06:53:34;101853.88;;;29.32;30.80
68594;BME280;55563;52.416;13.548;2022-07-12T06:55:34;101848.06;;;27.73;31.77
68594;BME280;55563;52.416;13.548;2022-07-12T06:57:35;101842.31;;;26.95;33.45
68594;BME280;55563;52.416;13.548;2022-07-12T06:59:37;101841.97;;;26.97;32.98
68594;BME280;55563;52.416;13.548;2022-07-12T07:01:38;101834.09;;;27.04;32.42
68594;BME280;55563;52.416;13.548;2022-07-12T07:03:38;101840.72;;;28.65;31.20
68594;BME280;55563;52.416;13.548;2022-07-12T07:05:39;101840.41;;;27.75;31.52
68594;BME280;55563;52.416;13.548;2022-07-12T07:07:40;101837.00;;;28.38;31.83
68594;BME280;55563;52.416;13.548;2022-07-12T07:09:40;101837.94;;;28.45;32.59
68594;BME280;55563;52.416;13.548;2022-07-12T07:11:42;101840.28;;;28.15;31.36
68594;BME280;55563;52.416;13.548;2022-07-12T07:13:42;101843.19;;;28.38;32.35
68594;BME280;55563;52.416;13.548;2022-07-12T07:15:43;101844.09;;;28.93;31.91
68594;BME280;55563;52.416;13.548;2022-07-12T07:17:44;101843.47;;;28.49;32.66
68594;BME280;55563;52.416;13.548;2022-07-12T07:19:45;101846.44;;;27.85;32.45
68594;BME280;55563;52.416;13.548;2022-07-12T07:21:46;101842.91;;;28.75;32.83
68594;BME280;55563;52.416;13.548;2022-07-12T07:23:47;101841.38;;;28.42;31.99
68594;BME280;55563;52.416;13.548;2022-07-12T07:25:48;101835.03;;;28.70;32.99
68594;BME280;55563;52.416;13.548;2022-07-12T07:27:48;101834.28;;;29.04;31.88
68594;BME280;55563;52.416;13.548;2022-07-12T07:29:49;101823.22;;;28.11;31.49
68594;BME280;55563;52.416;13.548;2022-07-12T07:32:09;101831.91;;;28.68;31.98
68594;BME280;55563;52.416;13.548;2022-07-12T07:34:10;101829.13;;;27.73;32.85
68594;BME280;55563;52.416;13.548;2022-07-12T07:36:11;101840.44;;;29.20;31.94
68594;BME280;55563;52.416;13.548;2022-07-12T07:38:11;101838.41;;;28.32;32.95
68594;BME280;55563;52.416;13.548;2022-07-12T07:40:12;101830.38;;;27.08;33.74
68594;BME280;55563;52.416;13.548;2022-07-12T07:42:12;101825.41;;;27.10;33.77
68594;BME280;55563;52.416;13.548;2022-07-12T07:44:13;101832.19;;;26.31;36.47
68594;BME280;55563;52.416;13.548;2022-07-12T07:46:14;101824.31;;;25.19;38.16
68594;BME280;55563;52.416;13.548;2022-07-12T07:48:14;101825.50;;;26.17;36.32
68594;BME280;55563;52.416;13.548;2022-07-12T07:50:15;101823.59;;;25.51;37.53
68594;BME280;55563;52.416;13.548;2022-07-12T07:52:16;101828.56;;;24.99;38.06
68594;BME280;55563;52.416;13.548;2022-07-12T07:54:16;101828.66;;;25.11;39.28
68594;BME280;55563;52.416;13.548;2022-07-12T07:56:17;101842.53;;;25.13;37.93
68594;BME280;55563;52.416;13.548;2022-07-12T07:58:18;101836.03;;;24.64;39.34
68594;BME280;55563;52.416;13.548;2022-07-12T08:00:21;101834.81;;;24.83;38.09
68594;BME280;55563;52.416;13.548;2022-07-12T08:02:21;101835.91;;;25.52;37.70
68594;BME280;55563;52.416;13.548;2022-07-12T08:04:22;101832.03;;;25.00;38.32
68594;BME280;55563;52.416;13.548;2022-07-12T08:06:23;101829.53;;;24.95;38.13
68594;BME280;55563;52.416;13.548;2022-07-12T08:08:24;101829.50;;;24.36;40.21
68594;BME280;55563;52.416;13.548;2022-07-12T08:10:25;101834.25;;;24.68;37.47
68594;BME280;55563;52.416;13.548;2022-07-12T08:12:26;101831.91;;;24.96;36.15
68594;BME280;55563;52.416;13.548;2022-07-12T08:14:27;101830.19;;;24.92;38.50
68594;BME280;55563;52.416;13.548;2022-07-12T08:16:27;101830.41;;;25.28;37.92
68594;BME280;55563;52.416;13.548;2022-07-12T08:18:28;101827.97;;;24.85;39.95
68594;BME280;55563;52.416;13.548;2022-07-12T08:20:29;101822.66;;;24.76;37.50
68594;BME280;55563;52.416;13.548;2022-07-12T08:22:29;101823.94;;;24.41;37.70
68594;BME280;55563;52.416;13.548;2022-07-12T08:24:30;101821.00;;;24.63;37.29
68594;BME280;55563;52.416;13.548;2022-07-12T08:26:31;101829.63;;;25.07;38.10
68594;BME280;55563;52.416;13.548;2022-07-12T08:28:31;101821.66;;;24.52;37.86
68594;BME280;55563;52.416;13.548;2022-07-12T08:30:32;101822.53;;;24.35;37.91
68594;BME280;55563;52.416;13.548;2022-07-12T08:32:33;101819.06;;;24.35;39.75
68594;BME280;55563;52.416;13.548;2022-07-12T08:34:34;101822.00;;;24.88;36.73
68594;BME280;55563;52.416;13.548;2022-07-12T08:36:35;101819.66;;;25.49;38.12
68594;BME280;55563;52.416;13.548;2022-07-12T08:38:35;101830.28;;;25.25;38.33
68594;BME280;55563;52.416;13.548;2022-07-12T08:40:38;101835.19;;;25.02;38.97
68594;BME280;55563;52.416;13.548;2022-07-12T08:42:42;101831.41;;;25.03;37.61
68594;BME280;55563;52.416;13.548;2022-07-12T08:44:43;101837.16;;;24.93;38.63
68594;BME280;55563;52.416;13.548;2022-07-12T08:46:44;101832.00;;;24.70;38.27
68594;BME280;55563;52.416;13.548;2022-07-12T08:48:47;101832.63;;;25.05;38.02
68594;BME280;55563;52.416;13.548;2022-07-12T08:51:06;101830.47;;;25.19;36.56
68594;BME280;55563;52.416;13.548;2022-07-12T08:53:10;101826.69;;;25.21;38.08
68594;BME280;55563;52.416;13.548;2022-07-12T08:55:29;101827.16;;;25.23;38.77
68594;BME280;55563;52.416;13.548;2022-07-12T08:57:31;101814.97;;;25.79;39.37
68594;BME280;55563;52.416;13.548;2022-07-12T08:59:32;101822.44;;;25.61;38.03
68594;BME280;55563;52.416;13.548;2022-07-12T09:01:42;101818.94;;;25.93;38.19
68594;BME280;55563;52.416;13.548;2022-07-12T09:03:47;101818.34;;;25.34;37.66
68594;BME280;55563;52.416;13.548;2022-07-12T09:05:50;101823.66;;;25.43;38.33
68594;BME280;55563;52.416;13.548;2022-07-12T09:08:01;101813.22;;;25.21;36.96
68594;BME280;55563;52.416;13.548;2022-07-12T09:10:04;101823.75;;;25.55;37.53
68594;BME280;55563;52.416;13.548;2022-07-12T09:12:06;101814.59;;;25.47;36.92
68594;BME280;55563;52.416;13.548;2022-07-12T09:14:06;101817.03;;;25.40;37.91
68594;BME280;55563;52.416;13.548;2022-07-12T09:16:15;101820.31;;;25.25;39.87
68594;BME280;55563;52.416;13.548;2022-07-12T09:18:16;101816.00;;;25.86;37.55
68594;BME280;55563;52.416;13.548;2022-07-12T09:20:18;101808.22;;;25.73;37.20
68594;BME280;55563;52.416;13.548;2022-07-12T09:22:19;101813.56;;;25.93;36.57
68594;BME280;55563;52.416;13.548;2022-07-12T09:24:24;101815.19;;;25.11;38.53
68594;BME280;55563;52.416;13.548;2022-07-12T09:26:30;101816.22;;;25.19;37.00
68594;BME280;55563;52.416;13.548;2022-07-12T09:28:44;101806.75;;;26.20;37.96
68594;BME280;55563;52.416;13.548;2022-07-12T09:30:48;101809.34;;;26.77;37.07
68594;BME280;55563;52.416;13.548;2022-07-12T09:32:51;101803.75;;;26.95;37.24
68594;BME280;55563;52.416;13.548;2022-07-12T09:35:11;101801.63;;;26.27;35.46
68594;BME280;55563;52.416;13.548;2022-07-12T09:37:39;101798.13;;;26.39;36.29
68594;BME280;55563;52.416;13.548;2022-07-12T09:39:41;101795.53;;;26.67;35.84
68594;BME280;55563;52.416;13.548;2022-07-12T09:41:42;101802.28;;;26.73;35.63
68594;BME280;55563;52.416;13.548;2022-07-12T09:43:45;101803.53;;;26.75;36.23
68594;BME280;55563;52.416;13.548;2022-07-12T09:45:46;101796.66;;;25.51;35.63
68594;BME280;55563;52.416;13.548;2022-07-12T09:47:48;101787.19;;;25.66;36.60
68594;BME280;55563;52.416;13.548;2022-07-12T09:49:49;101803.41;;;25.90;37.16
68594;BME280;55563;52.416;13.548;2022-07-12T09:51:55;101798.53;;;26.17;35.80
68594;BME280;55563;52.416;13.548;2022-07-12T09:53:57;101796.28;;;26.07;35.82
68594;BME280;55563;52.416;13.548;2022-07-12T09:56:04;101790.59;;;26.69;35.10
68594;BME280;55563;52.416;13.548;2022-07-12T09:58:07;101782.06;;;26.30;35.00
68594;BME280;55563;52.416;13.548;2022-07-12T10:00:09;101795.00;;;26.49;34.98
68594;BME280;55563;52.416;13.548;2022-07-12T10:02:14;101803.03;;;27.10;34.92
68594;BME280;55563;52.416;13.548;2022-07-12T10:04:20;101792.06;;;26.91;35.61
68594;BME280;55563;52.416;13.548;2022-07-12T10:06:25;101800.81;;;26.75;37.23
68594;BME280;55563;52.416;13.548;2022-07-12T10:08:26;101799.56;;;26.85;37.94
68594;BME280;55563;52.416;13.548;2022-07-12T10:10:27;101794.75;;;26.78;34.95
68594;BME280;55563;52.416;13.548;2022-07-12T10:12:28;101803.88;;;26.62;36.21
68594;BME280;55563;52.416;13.548;2022-07-12T10:14:29;101792.81;;;26.91;35.69
68594;BME280;55563;52.416;13.548;2022-07-12T10:16:33;101786.72;;;27.06;36.32
68594;BME280;55563;52.416;13.548;2022-07-12T10:18:34;101786.28;;;27.04;35.57
68594;BME280;55563;52.416;13.548;2022-07-12T10:20:41;101791.72;;;26.92;36.19
68594;BME280;55563;52.416;13.548;2022-07-12T10:22:44;101791.41;;;26.33;35.05
68594;BME280;55563;52.416;13.548;2022-07-12T10:24:45;101788.69;;;26.57;35.38
68594;BME280;55563;52.416;13.548;2022-07-12T10:26:46;101785.31;;;26.72;34.12
68594;BME280;55563;52.416;13.548;2022-07-12T10:29:04;101789.88;;;27.08;33.43